Latest Coastal Weather Observations for Cairns

IDQ60701

Issued at 8:22 am EST Friday 19 August 2022 (issued every 10 minutes, with the page automatically refreshed every 10 minutes)

About coastal observations | Map of coastal stations | Coastal observations for QLD | Marine services | Other Formats
Station Details ID: 031011 Name: CAIRNS AERO Lat: -16.87 Lon: 145.75 Height: 2.22 m
Data from the previous 72 hours. | See also: Recent months at Cairns
Date/Time
EST
Wind Sea
Height
m
Swell Vis
km
Cloud Weather Temp
°C
Press
MSL
hPa
Rain since
9am
mm
Dir  Spd
kts
Gust
kts
Height
m
Period
s
Dir
19/08:00am S 5 10 - - - - 10 - - 17.4 1018.0 0.0
19/07:30am WSW 2 3 - - - - 10 - - 16.0 1017.9 0.0
19/07:00am W 3 4 - - - - 10 - - 14.1 1017.8 0.0
19/06:30am W 1 2 - - - - 10 - - 13.6 1017.6 0.0
19/06:00am SSW 3 9 - - - - 10 - - 14.5 1017.3 0.0
19/05:30am W 2 3 - - - - 10 - - 14.2 1017.0 0.0
19/05:00am SSE 7 11 - - - - 10 - - 15.2 1016.9 0.0
19/04:30am SE 9 11 - - - - 10 - - 15.3 1016.7 0.0
19/04:00am SE 12 14 - - - - 10 - - 15.4 1016.9 0.0
19/03:30am SE 10 12 - - - - 10 - - 15.3 1017.2 0.0
19/03:00am SE 10 12 - - - - 10 - - 16.0 1017.3 0.0
19/02:30am W 1 3 - - - - 10 - - 14.8 1017.6 0.0
19/02:00am SSE 10 12 - - - - 10 - - 16.4 1017.6 0.0
19/01:30am SSE 9 11 - - - - 10 - - 16.5 1017.6 0.0
19/01:00am SSW 3 9 - - - - 10 - - 16.0 1017.8 0.0
19/12:30am W 2 3 - - - - 10 - - 15.2 1018.0 0.0
19/12:00am SSE 4 7 - - - - 10 - - 16.6 1018.2 0.0
 
Date/Time
EST
Wind Sea
Height
m
Swell Vis
km
Cloud Weather Temp
°C
Press
MSL
hPa
Rain since
9am
mm
Dir  Spd
kts
Gust
kts
Height
m
Period
s
Dir
18/11:30pm CALM 0 0 - - - - 10 - - 16.2 1018.3 0.0
18/11:00pm ESE 3 6 - - - - 10 - - 17.1 1018.4 0.0
18/10:30pm SE 2 4 - - - - 10 - - 17.5 1018.4 0.0
18/10:00pm SSE 3 8 - - - - 10 - - 18.3 1018.3 0.0
18/09:30pm S 6 9 - - - - 10 - - 19.2 1018.2 0.0
18/09:00pm S 7 10 - - - - 10 - - 19.6 1017.9 0.0
18/08:30pm S 4 8 - - - - 10 - - 19.6 1017.8 0.0
18/08:00pm S 3 7 - - - - 10 - - 19.3 1017.6 0.0
18/07:30pm SSE 3 5 - - - - 10 Partly cloudy - 19.3 1017.2 0.0
18/07:00pm S 4 8 - - - - 10 Partly cloudy - 20.0 1016.9 0.0
18/06:30pm SSE 5 8 - - - - 10 Partly cloudy - 19.9 1016.7 0.0
18/06:00pm SE 10 13 - - - - 10 Mostly clear - 21.1 1016.4 0.0
18/05:30pm SE 12 15 - - - - 10 Cloudy - 22.2 1016.4 0.0
18/05:00pm SE 12 15 - - - - 10 Partly cloudy - 23.1 1016.1 0.0
18/04:30pm ESE 13 18 - - - - 10 Partly cloudy - 23.8 1016.0 0.0
18/04:00pm ESE 12 16 - - - - 10 Partly cloudy - 24.1 1015.8 0.0
18/03:30pm ESE 12 19 - - - - 10 - - 24.3 1015.6 0.0
18/03:00pm ESE 13 17 - - - - 10 - - 25.2 1015.8 0.0
18/02:30pm ESE 13 17 - - - - 10 - - 25.2 1016.1 0.0
18/02:00pm ESE 14 19 - - - - 10 - - 25.6 1016.5 0.0
18/01:30pm ESE 13 18 - - - - 10 Partly cloudy - 26.0 1016.9 0.0
18/01:00pm ESE 14 18 - - - - 10 Partly cloudy - 25.6 1017.2 0.0
18/12:30pm ESE 15 21 - - - - 10 Partly cloudy - 25.9 1017.4 0.0
18/12:00pm ESE 16 21 - - - - 10 Cloudy - 25.5 1017.9 0.0
18/11:30am SE 14 21 - - - - 10 Partly cloudy - 25.5 1018.3 0.0
18/11:00am SE 14 21 - - - - 10 Partly cloudy - 23.4 1018.5 0.0
18/10:30am SE 16 21 - - - - 10 Partly cloudy - 23.1 1018.8 0.0
18/10:00am SSE 11 15 - - - - 10 - - 23.4 1018.9 0.0
18/09:30am SSE 9 13 - - - - 10 - - 22.6 1018.9 0.0
18/09:00am S 9 14 - - - - 10 - - 21.5 1018.5 0.0
18/08:30am SSE 7 11 - - - - 10 - - 20.8 1018.4 0.0
18/08:00am SE 8 10 - - - - 10 - - 18.1 1018.3 0.0
18/07:30am SE 8 10 - - - - 10 - - 15.5 1018.2 0.0
18/07:00am SSE 4 7 - - - - 10 - - 13.8 1017.9 0.0
18/06:30am SSE 1 2 - - - - 10 - - 12.5 1017.8 0.0
18/06:00am SSE 3 5 - - - - 10 - - 13.0 1017.4 0.0
18/05:30am W 1 3 - - - - 10 - - 11.9 1017.1 0.0
18/05:00am SE 1 4 - - - - 10 - - 12.4 1016.7 0.0
18/04:30am CALM 0 0 - - - - 10 - - 12.2 1016.6 0.0
18/04:00am SW 1 2 - - - - 10 - - 12.5 1016.4 0.0
18/03:30am W 1 3 - - - - 10 - - 13.1 1016.3 0.0
18/03:00am WNW 2 4 - - - - 10 - - 12.8 1016.3 0.0
18/02:30am W 3 4 - - - - 10 - - 13.2 1016.3 0.0
18/02:00am S 2 4 - - - - 10 - - 13.2 1016.3 0.0
18/01:30am SSW 2 4 - - - - 10 - - 14.9 1016.4 0.0
18/01:00am S 3 7 - - - - 10 - - 15.5 1016.7 0.0
18/12:30am SW 2 5 - - - - 10 - - 14.7 1017.1 0.0
18/12:00am S 4 7 - - - - 10 - - 15.6 1017.2 0.0
 
Date/Time
EST
Wind Sea
Height
m
Swell Vis
km
Cloud Weather Temp
°C
Press
MSL
hPa
Rain since
9am
mm
Dir  Spd
kts
Gust
kts
Height
m
Period
s
Dir
17/11:30pm SSE 3 6 - - - - 10 - - 14.4 1017.4 0.0
17/11:00pm SE 7 9 - - - - 10 - - 14.8 1017.4 0.0
17/10:30pm SE 6 8 - - - - 10 - - 15.3 1017.5 0.0
17/10:00pm SE 8 10 - - - - 10 - - 16.3 1017.3 0.0
17/09:30pm SE 4 8 - - - - 10 - - 17.7 1017.4 0.0
17/09:00pm S 7 11 - - - - 10 - - 18.6 1017.4 0.0
17/08:30pm S 4 7 - - - - 10 - - 18.8 1017.2 0.0
17/08:00pm SE 4 6 - - - - 10 - - 16.9 1017.1 0.0
17/07:30pm SSE 2 5 - - - - 10 - - 17.8 1016.7 0.0
17/07:00pm SSW 1 3 - - - - 10 - - 17.7 1016.5 0.0
17/06:30pm S 2 5 - - - - 10 - - 18.9 1016.2 0.0
17/06:00pm SE 8 11 - - - - 10 - - 20.3 1015.9 0.0
17/05:30pm SE 12 14 - - - - 10 - - 21.6 1015.5 0.0
17/05:00pm SE 13 15 - - - - 10 - - 22.8 1015.1 0.0
17/04:30pm SE 11 14 - - - - 10 - - 23.5 1014.7 0.0
17/04:00pm ESE 11 14 - - - - 10 - - 24.2 1014.7 0.0
17/03:30pm SE 11 14 - - - - 10 - - 24.7 1014.6 0.0
17/03:00pm SE 9 11 - - - - 10 - - 25.3 1014.7 0.0
17/02:30pm SE 8 11 - - - - 10 - - 25.8 1014.7 0.0
17/02:00pm ESE 9 12 - - - - 10 - - 25.5 1015.0 0.0
17/01:30pm ESE 8 12 - - - - 10 - - 25.6 1015.4 0.0
17/01:00pm E 9 14 - - - - 10 - - 25.2 1015.7 0.0
17/12:30pm ESE 9 14 - - - - 10 - - 25.0 1015.9 0.0
17/12:00pm SE 11 14 - - - - 10 - - 25.3 1016.4 0.0
17/11:30am SE 10 14 - - - - 10 - - 25.2 1017.0 0.0
17/11:00am SSE 11 15 - - - - 10 - - 24.0 1017.3 0.0
17/10:30am SSE 12 17 - - - - 10 - - 23.5 1017.7 0.0
17/10:00am SSE 13 17 - - - - 10 - - 23.1 1017.7 0.0
17/09:30am SSE 11 16 - - - - 10 - - 22.0 1017.6 0.0
17/09:00am SSE 9 13 - - - - 10 - - 20.3 1017.5 0.0
17/08:30am SSE 7 11 - - - - 10 - - 19.6 1017.2 0.0
17/08:00am NNE 2 4 - - - - 10 - - 17.9 1016.7 0.0
17/07:30am SSE 4 7 - - - - 10 - - 15.8 1016.3 0.0
17/07:00am SE 5 10 - - - - 10 - - 15.6 1015.9 0.0
17/06:30am SSE 8 12 - - - - 10 - - 15.7 1015.6 0.0
17/06:00am SSE 6 9 - - - - 10 - - 15.6 1015.2 0.0
17/05:30am SSE 5 9 - - - - 10 - - 15.9 1014.7 0.0
17/05:00am WSW 1 4 - - - - 10 - - 14.4 1014.3 0.0
17/04:30am S 3 9 - - - - 10 - - 16.0 1014.1 0.0
17/04:00am NW 2 4 - - - - 10 - - 13.4 1014.0 0.0
17/03:30am WNW 2 4 - - - - 10 - - 13.6 1014.0 0.0
17/03:20am NNW 4 6 - - - - 10 - - 14.1 1014.1 0.0
17/03:02am S 3 4 - - - - 6 - - 14.2 1014.1 0.0
17/03:00am SSW 3 4 - - - - 10 - - 14.9 1014.1 0.0
17/02:30am SSW 1 3 - - - - 10 - - 13.5 1014.4 0.0
17/02:00am NNW 1 2 - - - - 10 - - 14.2 1014.4 0.0
17/01:30am WNW 2 3 - - - - 10 - - 14.9 1014.5 0.0
17/01:00am WNW 3 4 - - - - 10 - - 14.5 1014.7 0.0
17/12:30am SSW 4 9 - - - - 10 - - 17.9 1014.9 0.0
17/12:00am W 2 4 - - - - 10 - - 14.9 1014.9 0.0
 
Date/Time
EST
Wind Sea
Height
m
Swell Vis
km
Cloud Weather Temp
°C
Press
MSL
hPa
Rain since
9am
mm
Dir  Spd
kts
Gust
kts
Height
m
Period
s
Dir
16/11:30pm SSE 1 4 - - - - 10 - - 14.7 1014.5 0.0
16/11:00pm CALM 0 2 - - - - 10 - - 14.4 1014.4 0.0
16/10:30pm CALM 0 0 - - - - 10 - - 14.7 1014.2 0.0
16/10:00pm WSW 1 2 - - - - 10 - - 15.4 1014.1 0.0
16/09:30pm W 2 4 - - - - 10 - - 16.0 1014.1 0.0
16/09:00pm W 1 2 - - - - 10 - - 16.2 1014.1 0.0
16/08:30pm SW 1 3 - - - - 10 - - 16.8 1013.8 0.0
16/08:00pm W 3 4 - - - - 10 - - 17.5 1013.4 0.0
16/07:30pm WNW 3 4 - - - - 10 - - 18.2 1013.2 0.0
16/07:00pm WNW 3 3 - - - - 10 - - 19.1 1012.5 0.0
16/06:30pm W 1 3 - - - - 10 - - 18.9 1012.2 0.0
16/06:00pm N 1 2 - - - - 10 - - 20.4 1011.9 0.0
16/05:30pm NNE 3 4 - - - - 10 - - 22.8 1011.7 0.0
16/05:00pm NNE 4 6 - - - - 10 - - 23.7 1011.6 0.0
16/04:30pm NNE 5 9 - - - - 10 - - 24.3 1011.4 0.0
16/04:00pm NNE 7 10 - - - - 10 - - 24.6 1011.3 0.0
16/03:30pm NE 7 10 - - - - 10 - - 25.0 1011.2 0.0
16/03:00pm NE 7 10 - - - - 10 - - 25.3 1011.4 0.0
16/02:30pm NE 8 13 - - - - 10 - - 25.7 1011.8 0.0
16/02:00pm NE 9 11 - - - - 10 - - 26.3 1012.3 0.0
16/01:30pm ENE 11 14 - - - - 10 - - 26.2 1012.8 0.0
16/01:00pm ENE 11 19 - - - - 10 - - 26.2 1013.3 0.0
16/12:30pm NE 9 12 - - - - 10 - - 26.2 1014.0 0.0
16/12:00pm NE 9 12 - - - - 10 - - 25.6 1014.5 0.0
16/11:30am E 5 9 - - - - 10 - - 26.1 1014.9 0.0
16/11:00am SE 6 9 - - - - 10 - - 25.8 1015.3 0.0
16/10:30am SSE 6 9 - - - - 10 - - 25.2 1015.5 0.0
16/10:00am SE 7 10 - - - - 10 - - 23.8 1015.9 0.0
16/09:30am SE 7 9 - - - - 10 - - 23.4 1015.9 0.0
16/09:00am SE 6 8 - - - - 10 - - 21.9 1015.7 0.0
16/08:30am SSE 5 8 - - - - 10 - - 21.0 1015.6 0.0

Other formats

Comma delimited format used in spreadsheet applications
http://www.bom.gov.au/fwo/IDQ60701/IDQ60701.94287.axf

JavaScript Object Notation format (JSON) in row-major order
http://www.bom.gov.au/fwo/IDQ60701/IDQ60701.94287.json

Data quality

Most of these data are generated automatically and are frequently updated. Quality checks on data are not normally performed. It is possible for incorrect values to appear. Refer to information at About Latest Weather Observations and please check the disclaimer before using these data.